createdAt,value
2022-11-07T00:02:21.497Z,10.91
2022-11-07T00:04:49.485Z,10.93
2022-11-07T00:07:17.622Z,11.05
2022-11-07T00:09:45.635Z,11.05
2022-11-07T00:12:13.653Z,10.88
2022-11-07T00:14:41.301Z,10.85
2022-11-07T00:17:09.639Z,11.14
2022-11-07T00:19:37.599Z,11.12
2022-11-07T00:22:06.004Z,11.24
2022-11-07T00:24:33.981Z,11.02
2022-11-07T00:27:01.854Z,10.99
2022-11-07T00:29:29.931Z,11.21
2022-11-07T00:31:59.727Z,11.15
2022-11-07T00:34:27.800Z,11.06
2022-11-07T00:36:55.774Z,11.36
2022-11-07T00:39:23.610Z,11.33
2022-11-07T00:41:51.467Z,11.29
2022-11-07T00:44:19.449Z,11.23
2022-11-07T00:46:47.350Z,11.28
2022-11-07T00:49:15.310Z,11.25
2022-11-07T00:51:43.520Z,11.22
2022-11-07T00:54:11.445Z,11.18
2022-11-07T00:56:39.412Z,11.35
2022-11-07T00:59:07.663Z,11.78
2022-11-07T01:01:35.847Z,11.99
2022-11-07T01:04:22.971Z,12.02
2022-11-07T01:06:50.987Z,12.08
2022-11-07T01:09:21.837Z,12.03
2022-11-07T01:11:50.372Z,12.06
2022-11-07T01:14:20.359Z,11.49
2022-11-07T01:16:48.673Z,11.66
2022-11-07T01:19:16.842Z,11.81
2022-11-07T01:21:44.846Z,11.98
2022-11-07T01:24:13.918Z,11.65
2022-11-07T01:26:43.471Z,11.64
2022-11-07T01:29:11.719Z,11.47
2022-11-07T01:31:40.803Z,11.48
2022-11-07T01:34:08.785Z,11.56
2022-11-07T01:36:37.678Z,11.43
2022-11-07T01:39:06.436Z,11.79
2022-11-07T01:41:37.036Z,12.00
2022-11-07T01:44:07.861Z,12.04
2022-11-07T01:46:45.668Z,11.82
2022-11-07T01:49:19.175Z,11.58
2022-11-07T01:51:49.746Z,11.53
2022-11-07T01:54:22.463Z,11.68
2022-11-07T01:56:52.312Z,11.73
2022-11-07T01:59:24.026Z,11.73
2022-11-07T02:01:52.392Z,12.06
2022-11-07T02:04:24.155Z,12.11
2022-11-07T02:06:58.411Z,11.94
2022-11-07T02:09:26.644Z,12.16
2022-11-07T02:11:54.524Z,12.18
2022-11-07T02:14:22.512Z,11.59
2022-11-07T02:16:50.508Z,11.74
2022-11-07T02:19:40.566Z,11.88
2022-11-07T02:22:39.316Z,11.49
2022-11-07T02:25:12.214Z,11.68
2022-11-07T02:27:42.066Z,11.56
2022-11-07T02:30:22.578Z,11.71
2022-11-07T02:32:50.462Z,11.57
2022-11-07T02:35:38.896Z,11.47
2022-11-07T02:38:15.931Z,11.56
2022-11-07T02:40:45.772Z,11.75
2022-11-07T02:43:16.573Z,11.88
2022-11-07T02:45:46.686Z,11.34
2022-11-07T02:48:14.526Z,11.22
2022-11-07T02:50:42.826Z,11.23
2022-11-07T02:53:10.865Z,10.88
2022-11-07T02:55:39.008Z,10.92
2022-11-07T02:58:06.946Z,11.00
2022-11-07T03:00:34.908Z,10.69
2022-11-07T03:03:03.030Z,10.81
2022-11-07T03:05:31.039Z,10.70
2022-11-07T03:07:59.236Z,10.84
2022-11-07T03:10:27.323Z,11.15
2022-11-07T03:12:55.404Z,11.07
2022-11-07T03:15:23.806Z,11.02
2022-11-07T03:17:51.528Z,10.92
2022-11-07T03:20:19.961Z,10.78
2022-11-07T03:22:47.695Z,11.10
2022-11-07T03:25:15.967Z,10.95
2022-11-07T03:27:50.316Z,11.20
2022-11-07T03:30:19.371Z,11.06
2022-11-07T03:32:47.509Z,10.79
2022-11-07T03:35:15.244Z,10.65
2022-11-07T03:37:46.648Z,10.57
2022-11-07T03:40:15.637Z,10.52
2022-11-07T03:42:44.754Z,10.36
2022-11-07T03:45:14.786Z,10.51
2022-11-07T03:47:44.686Z,10.96
2022-11-07T03:50:19.105Z,10.83
2022-11-07T03:52:47.788Z,10.75
2022-11-07T03:55:18.176Z,10.35
2022-11-07T03:57:47.505Z,10.27
2022-11-07T04:00:16.020Z,9.94
2022-11-07T04:02:44.504Z,9.85
2022-11-07T04:05:12.876Z,9.81
2022-11-07T04:07:40.797Z,10.19
2022-11-07T04:10:08.932Z,10.28
2022-11-07T04:12:55.642Z,10.42
2022-11-07T04:15:41.764Z,10.42
2022-11-07T04:18:09.550Z,10.43
2022-11-07T04:20:37.320Z,10.15
2022-11-07T04:23:05.334Z,10.23
2022-11-07T04:26:11.905Z,10.34
2022-11-07T04:28:39.987Z,10.21
2022-11-07T04:31:07.809Z,10.19
2022-11-07T04:33:36.006Z,10.29
2022-11-07T04:36:04.296Z,10.30
2022-11-07T04:38:32.558Z,10.08
2022-11-07T04:41:43.673Z,10.07
2022-11-07T04:44:54.799Z,10.06
2022-11-07T04:47:53.882Z,9.88
2022-11-07T04:50:46.525Z,9.99
2022-11-07T04:53:34.714Z,9.86
2022-11-07T04:56:34.335Z,10.01
2022-11-07T05:00:00.721Z,10.03
2022-11-07T05:02:40.884Z,9.97
2022-11-07T05:05:55.283Z,10.01
2022-11-07T05:08:35.807Z,9.84
2022-11-07T05:11:41.517Z,9.71
2022-11-07T05:14:48.058Z,9.74
2022-11-07T05:17:39.067Z,9.65
2022-11-07T05:20:34.755Z,9.74
2022-11-07T05:23:34.445Z,9.45
2022-11-07T05:26:40.688Z,9.57
2022-11-07T05:29:46.574Z,9.48
2022-11-07T05:32:55.802Z,9.54
2022-11-07T05:36:04.225Z,9.53
2022-11-07T05:39:32.025Z,9.56
2022-11-07T05:42:25.842Z,9.38
2022-11-07T05:45:31.843Z,9.42
2022-11-07T05:48:40.684Z,9.14
2022-11-07T05:51:09.011Z,9.38
2022-11-07T05:53:36.981Z,9.30
2022-11-07T05:56:05.180Z,9.54
2022-11-07T05:58:33.165Z,9.43
2022-11-07T06:01:05.843Z,9.52
2022-11-07T06:03:34.300Z,9.83
2022-11-07T06:06:02.367Z,9.80
2022-11-07T06:08:30.412Z,9.62
2022-11-07T06:10:58.407Z,9.59
2022-11-07T06:13:26.298Z,9.68
2022-11-07T06:15:54.315Z,9.80
2022-11-07T06:18:22.625Z,9.47
2022-11-07T06:20:50.563Z,9.37
2022-11-07T06:23:19.332Z,9.45
2022-11-07T06:25:47.766Z,9.18
2022-11-07T06:28:16.349Z,9.33
2022-11-07T06:30:45.081Z,9.40
2022-11-07T06:33:16.971Z,9.46
2022-11-07T06:35:48.743Z,9.46
2022-11-07T06:38:18.927Z,9.70
2022-11-07T06:40:46.818Z,9.58
2022-11-07T06:43:18.187Z,9.19
2022-11-07T06:45:48.090Z,9.21
2022-11-07T06:48:16.489Z,9.68
2022-11-07T06:50:44.761Z,9.99
2022-11-07T06:53:14.261Z,9.62
2022-11-07T06:55:42.991Z,9.58
2022-11-07T06:58:11.599Z,9.38
2022-11-07T07:00:40.262Z,9.49
2022-11-07T07:03:08.772Z,9.40
2022-11-07T07:05:36.958Z,9.15
2022-11-07T07:08:14.235Z,9.36
2022-11-07T07:10:44.414Z,9.32
2022-11-07T07:13:14.078Z,9.78
2022-11-07T07:15:50.877Z,9.84
2022-11-07T07:18:20.236Z,10.15
2022-11-07T07:20:50.604Z,10.25
2022-11-07T07:23:20.373Z,10.25
2022-11-07T07:25:49.547Z,10.36
2022-11-07T07:28:17.893Z,10.35
2022-11-07T07:30:50.536Z,10.69
2022-11-07T07:33:22.320Z,10.82
2022-11-07T07:35:50.565Z,11.00
2022-11-07T07:38:18.650Z,11.13
2022-11-07T07:40:46.693Z,10.95
2022-11-07T07:43:14.696Z,10.82
2022-11-07T07:45:43.017Z,10.72
2022-11-07T07:48:11.215Z,10.80
2022-11-07T07:50:39.138Z,11.10
2022-11-07T07:53:09.238Z,11.37
2022-11-07T07:55:37.443Z,11.22
2022-11-07T07:58:05.249Z,11.55
2022-11-07T08:00:33.417Z,11.47
2022-11-07T08:03:05.989Z,11.55
2022-11-07T08:05:34.256Z,11.62
2022-11-07T08:08:02.077Z,11.65
2022-11-07T08:10:45.445Z,11.94
2022-11-07T08:13:13.451Z,11.78
2022-11-07T08:15:41.276Z,11.76
2022-11-07T08:18:09.449Z,12.21
2022-11-07T08:20:37.825Z,12.26
2022-11-07T08:23:12.922Z,12.33
2022-11-07T08:25:50.372Z,12.55
2022-11-07T08:28:21.418Z,12.50
2022-11-07T08:31:19.083Z,12.53
2022-11-07T08:33:46.965Z,12.56
2022-11-07T08:36:14.918Z,12.98
2022-11-07T08:38:43.105Z,13.23
2022-11-07T08:41:11.248Z,13.36
2022-11-07T08:43:39.148Z,13.21
2022-11-07T08:46:07.633Z,13.24
2022-11-07T08:48:35.605Z,13.55
2022-11-07T08:51:03.400Z,13.61
2022-11-07T08:53:32.363Z,13.70
2022-11-07T08:56:06.408Z,14.04
2022-11-07T08:58:35.676Z,13.64
2022-11-07T09:01:08.659Z,13.90
2022-11-07T09:03:46.274Z,13.96
2022-11-07T09:06:18.419Z,14.26
2022-11-07T09:08:49.270Z,14.20
2022-11-07T09:11:19.314Z,14.34
2022-11-07T09:13:47.798Z,14.32
2022-11-07T09:16:18.763Z,14.03
2022-11-07T09:18:48.985Z,14.36
2022-11-07T09:21:22.143Z,14.45
2022-11-07T09:23:55.316Z,14.50
2022-11-07T09:26:24.125Z,14.51
2022-11-07T09:28:55.041Z,14.40
2022-11-07T09:31:27.319Z,14.49
2022-11-07T09:33:55.863Z,14.57
2022-11-07T09:36:24.338Z,14.69
2022-11-07T09:38:52.487Z,14.65
2022-11-07T09:41:40.333Z,14.89
2022-11-07T09:44:39.212Z,14.99
2022-11-07T09:47:06.944Z,14.96
2022-11-07T09:49:44.369Z,14.90
2022-11-07T09:52:49.637Z,14.98
2022-11-07T09:55:20.901Z,15.00
2022-11-07T09:57:50.941Z,14.67
2022-11-07T10:00:21.701Z,15.00
2022-11-07T10:02:53.813Z,14.90
2022-11-07T10:05:46.572Z,14.94
2022-11-07T10:08:52.513Z,14.98
2022-11-07T10:11:23.290Z,14.96
2022-11-07T10:13:57.738Z,15.11
2022-11-07T10:16:38.512Z,15.07
2022-11-07T10:19:18.428Z,15.03
2022-11-07T10:22:12.665Z,15.08
2022-11-07T10:24:46.732Z,14.98
2022-11-07T10:27:14.890Z,14.87
2022-11-07T10:29:53.841Z,15.09
2022-11-07T10:32:49.825Z,15.29
2022-11-07T10:35:29.461Z,15.33
2022-11-07T10:38:05.034Z,15.35
2022-11-07T10:40:39.115Z,15.30
2022-11-07T10:43:14.158Z,15.40
2022-11-07T10:45:43.105Z,15.39
2022-11-07T10:48:14.525Z,15.44
2022-11-07T10:50:51.497Z,15.66
2022-11-07T10:53:20.979Z,15.77
2022-11-07T10:55:51.051Z,15.79
2022-11-07T10:58:25.243Z,15.89
2022-11-07T11:01:12.925Z,15.85
2022-11-07T11:03:45.437Z,15.90
2022-11-07T11:06:27.721Z,16.20
2022-11-07T11:08:56.623Z,16.31
2022-11-07T11:11:32.847Z,16.44
2022-11-07T11:14:13.266Z,16.61
2022-11-07T11:16:42.941Z,16.72
2022-11-07T11:19:21.255Z,16.29
2022-11-07T11:21:51.336Z,16.18
2022-11-07T11:24:38.725Z,16.31
2022-11-07T11:27:28.230Z,16.25
2022-11-07T11:30:00.268Z,16.35
2022-11-07T11:32:42.875Z,16.30
2022-11-07T11:35:28.521Z,16.49
2022-11-07T11:38:13.525Z,16.30
2022-11-07T11:40:46.942Z,16.68
2022-11-07T11:43:23.409Z,16.78
2022-11-07T11:46:01.281Z,16.87
2022-11-07T11:49:11.975Z,16.77
2022-11-07T11:51:52.262Z,17.03
2022-11-07T11:54:20.865Z,16.83
2022-11-07T11:56:55.960Z,16.95
2022-11-07T11:59:56.802Z,17.06
2022-11-07T12:02:37.297Z,16.96
2022-11-07T12:05:10.977Z,17.31
2022-11-07T12:07:38.635Z,17.37
2022-11-07T12:10:41.511Z,17.62
2022-11-07T12:13:20.836Z,17.27
2022-11-07T12:15:57.450Z,17.30
2022-11-07T12:18:46.292Z,17.32
2022-11-07T12:21:28.651Z,17.63
2022-11-07T12:24:05.206Z,17.71
2022-11-07T12:26:57.734Z,17.84
2022-11-07T12:29:43.759Z,17.95
2022-11-07T12:32:32.076Z,17.80
2022-11-07T12:35:21.573Z,17.60
2022-11-07T12:38:01.268Z,17.86
2022-11-07T12:40:48.357Z,17.68
2022-11-07T12:43:19.357Z,17.59
2022-11-07T12:46:07.539Z,17.57
2022-11-07T12:49:05.435Z,17.74
2022-11-07T12:51:42.470Z,17.57
2022-11-07T12:54:29.157Z,17.56
2022-11-07T12:56:57.882Z,-145.74
2022-11-07T12:59:31.506Z,-145.74
2022-11-07T13:01:59.367Z,-145.74
2022-11-07T13:04:47.712Z,-145.74
2022-11-07T13:07:40.595Z,-145.74
2022-11-07T13:10:19.203Z,-145.74
2022-11-07T13:13:03.062Z,-145.74
2022-11-07T13:15:53.707Z,-145.74
2022-11-07T13:18:26.970Z,-145.74
2022-11-07T13:21:02.963Z,-145.74
2022-11-07T13:23:31.212Z,-145.74
2022-11-07T13:26:25.973Z,-145.74
2022-11-07T13:29:01.047Z,-145.74
2022-11-07T13:31:38.471Z,-145.74
2022-11-07T13:34:19.387Z,-145.74
2022-11-07T13:36:49.956Z,-145.74
2022-11-07T13:39:18.518Z,-145.74
2022-11-07T13:41:48.216Z,-145.74
2022-11-07T13:44:36.470Z,-145.74
2022-11-07T13:47:13.552Z,-145.74
2022-11-07T13:49:46.059Z,-145.74
2022-11-07T13:52:36.781Z,-145.74
2022-11-07T13:55:22.417Z,-145.74
2022-11-07T13:57:57.989Z,-145.74
2022-11-07T14:00:27.047Z,-145.74
2022-11-07T14:02:57.454Z,-145.74
2022-11-07T14:05:34.952Z,-145.74
2022-11-07T14:08:16.775Z,-145.74
2022-11-07T14:10:47.921Z,-145.74
2022-11-07T14:13:24.789Z,-145.74
2022-11-07T14:15:59.678Z,-145.74
2022-11-07T14:18:32.205Z,-145.74
2022-11-07T14:21:01.423Z,-145.74
2022-11-07T14:23:35.000Z,-145.74
2022-11-07T14:26:04.338Z,-145.74
2022-11-07T14:28:40.012Z,-145.74
2022-11-07T14:31:35.792Z,-145.74
2022-11-07T14:34:13.915Z,-145.74
2022-11-07T14:37:00.133Z,-145.74
2022-11-07T14:39:31.808Z,-145.74
2022-11-07T14:42:02.479Z,-145.74
2022-11-07T14:44:53.463Z,-145.74
2022-11-07T14:47:28.383Z,-145.74
2022-11-07T14:49:57.109Z,-145.74
2022-11-07T14:52:36.476Z,-145.74
2022-11-07T14:55:20.550Z,-145.74
2022-11-07T14:57:48.820Z,-145.74
2022-11-07T15:00:20.165Z,-145.74
2022-11-07T15:02:50.864Z,-145.74
2022-11-07T15:05:41.997Z,-145.74
2022-11-07T15:08:33.522Z,-145.74
2022-11-07T15:11:25.181Z,-145.74
2022-11-07T15:14:02.541Z,-145.74
2022-11-07T15:16:37.957Z,-145.74
2022-11-07T15:19:08.921Z,-145.74
2022-11-07T15:21:39.530Z,-145.74
2022-11-07T15:24:31.890Z,-145.74
2022-11-07T15:27:03.338Z,-145.74
2022-11-07T15:29:33.728Z,-145.74
2022-11-07T15:32:45.605Z,-145.74
2022-11-07T15:35:42.278Z,-145.74
2022-11-07T15:38:04.703Z,-145.74
2022-11-07T15:40:32.770Z,-145.74
2022-11-07T15:43:01.159Z,-145.74
2022-11-07T15:45:31.004Z,-145.74
2022-11-07T15:48:01.890Z,-145.74
2022-11-07T15:50:29.697Z,-145.74
2022-11-07T15:52:57.225Z,-145.74
2022-11-07T15:55:25.257Z,-145.74
2022-11-07T15:57:54.565Z,-145.74
2022-11-07T16:00:25.513Z,-145.74
2022-11-07T16:02:53.725Z,-145.74
2022-11-07T16:05:21.847Z,-145.74
2022-11-07T16:07:49.579Z,-145.74
2022-11-07T16:10:22.105Z,-145.74
2022-11-07T16:12:50.948Z,-145.74
2022-11-07T16:15:20.663Z,-145.74
2022-11-07T16:17:49.454Z,-145.74
2022-11-07T16:20:20.537Z,-145.74
2022-11-07T16:22:50.444Z,-145.74
2022-11-07T16:25:22.411Z,-145.74
2022-11-07T16:28:00.421Z,-145.74
2022-11-07T16:30:28.717Z,-145.74
2022-11-07T16:32:57.264Z,-145.74
2022-11-07T16:35:26.391Z,-145.74
2022-11-07T16:37:54.709Z,-145.74
2022-11-07T16:40:25.253Z,-145.74
2022-11-07T16:42:53.312Z,-145.74
2022-11-07T16:45:22.612Z,-145.74
2022-11-07T16:47:50.738Z,-145.74
2022-11-07T16:50:19.158Z,-145.74
2022-11-07T16:52:46.833Z,-145.74
2022-11-07T16:55:19.588Z,-145.74
2022-11-07T16:57:48.620Z,-145.74
2022-11-07T17:00:22.392Z,-145.74
2022-11-07T17:02:50.314Z,-145.74
2022-11-07T17:05:18.920Z,-145.74
2022-11-07T17:07:48.484Z,-145.74
2022-11-07T17:10:17.845Z,-145.74
2022-11-07T17:12:46.182Z,-145.74
2022-11-07T17:15:13.946Z,-145.74
2022-11-07T17:17:42.569Z,-145.74
2022-11-07T17:20:48.499Z,-145.74
2022-11-07T17:23:09.599Z,-145.74
2022-11-07T17:25:38.645Z,-145.74
2022-11-07T17:28:07.760Z,-145.74
2022-11-07T17:30:36.164Z,-145.74
2022-11-07T17:33:04.735Z,-145.74
2022-11-07T17:35:33.465Z,-145.74
2022-11-07T17:38:01.637Z,-145.74
2022-11-07T17:40:31.494Z,-145.74
2022-11-07T17:42:59.917Z,-145.74
2022-11-07T17:45:28.541Z,-145.74
2022-11-07T17:47:56.966Z,-145.74
2022-11-07T17:50:25.350Z,-145.74
2022-11-07T17:52:53.922Z,-145.74
2022-11-07T17:55:22.060Z,-145.74
2022-11-07T17:57:50.395Z,-145.74
2022-11-07T18:00:22.202Z,-145.74
2022-11-07T18:02:52.601Z,-145.74
2022-11-07T18:05:22.832Z,-145.74
2022-11-07T18:07:57.607Z,-145.74
2022-11-07T18:10:27.358Z,-145.74
2022-11-07T18:12:59.973Z,-145.74
2022-11-07T18:15:28.365Z,-145.74
2022-11-07T18:17:56.455Z,-145.74
2022-11-07T18:20:24.572Z,-145.74
2022-11-07T18:22:53.254Z,-145.74
2022-11-07T18:25:22.065Z,-145.74
2022-11-07T18:27:59.308Z,-145.74
2022-11-07T18:30:31.504Z,-145.74
2022-11-07T18:33:08.828Z,-145.74
2022-11-07T18:35:36.951Z,-145.74
2022-11-07T18:38:05.105Z,-145.74
2022-11-07T18:40:33.737Z,-145.74
2022-11-07T18:43:01.434Z,-145.74
2022-11-07T18:45:29.561Z,-145.74
2022-11-07T18:47:57.826Z,-145.74
2022-11-07T18:50:25.841Z,-145.74
2022-11-07T18:52:54.470Z,-145.74
2022-11-07T18:55:27.221Z,-145.74
2022-11-07T18:58:03.842Z,-145.74
2022-11-07T19:00:32.375Z,-145.74
2022-11-07T19:03:00.509Z,-145.74
2022-11-07T19:05:29.073Z,-145.74
2022-11-07T19:07:57.278Z,-145.74
2022-11-07T19:10:26.863Z,-145.74
2022-11-07T19:12:54.804Z,-145.74
2022-11-07T19:15:25.004Z,-145.74
2022-11-07T19:17:53.450Z,-145.74
2022-11-07T19:20:21.715Z,-145.74
2022-11-07T19:22:50.225Z,-145.74
2022-11-07T19:25:19.042Z,-145.74
2022-11-07T19:27:51.734Z,-145.74
2022-11-07T19:30:19.913Z,-145.74
2022-11-07T19:32:48.289Z,-145.74
2022-11-07T19:35:16.985Z,-145.74
2022-11-07T19:37:44.944Z,-145.74
2022-11-07T19:40:13.140Z,-145.74
2022-11-07T19:42:41.596Z,-145.74
2022-11-07T19:45:10.136Z,-145.74
2022-11-07T19:47:38.207Z,-145.74
2022-11-07T19:50:06.424Z,-145.74
2022-11-07T19:52:34.517Z,-145.74
2022-11-07T19:55:02.549Z,-145.74
2022-11-07T19:57:30.645Z,-145.74
2022-11-07T19:59:58.383Z,-145.74
2022-11-07T20:02:33.010Z,-145.74
2022-11-07T20:05:02.884Z,-145.74
2022-11-07T20:07:31.111Z,-145.74
2022-11-07T20:09:59.579Z,-145.74
2022-11-07T20:12:28.396Z,-145.74
2022-11-07T20:14:56.536Z,-145.74
2022-11-07T20:17:24.567Z,-145.74
2022-11-07T20:19:52.643Z,-145.74
2022-11-07T20:22:20.645Z,-145.74
2022-11-07T20:24:48.795Z,-145.74
2022-11-07T20:27:16.885Z,-145.74
2022-11-07T20:29:45.301Z,-145.74
2022-11-07T20:32:13.473Z,-145.74
2022-11-07T20:34:41.339Z,-145.74
2022-11-07T20:37:09.204Z,-145.74
2022-11-07T20:39:37.716Z,-145.74
2022-11-07T20:42:05.953Z,-145.74
2022-11-07T20:44:34.318Z,-145.74
2022-11-07T20:47:02.522Z,-145.74
2022-11-07T20:49:30.791Z,-145.74
2022-11-07T20:51:58.649Z,-145.74
2022-11-07T20:54:28.652Z,-145.74
2022-11-07T20:56:56.802Z,-145.74
2022-11-07T20:59:24.933Z,-145.74
2022-11-07T21:01:55.637Z,-145.74
2022-11-07T21:04:25.780Z,-145.74
2022-11-07T21:06:54.053Z,-145.74
2022-11-07T21:09:23.621Z,-145.74
2022-11-07T21:11:51.411Z,-145.74
2022-11-07T21:14:19.425Z,-145.74
2022-11-07T21:16:47.454Z,-145.74
2022-11-07T21:19:16.235Z,-145.74
2022-11-07T21:21:44.203Z,-145.74
2022-11-07T21:24:12.736Z,-145.74
2022-11-07T21:26:40.973Z,-145.74
2022-11-07T21:29:09.306Z,-145.74
2022-11-07T21:31:39.579Z,-145.74
2022-11-07T21:34:10.453Z,-145.74
2022-11-07T21:36:39.223Z,-145.74
2022-11-07T21:39:10.327Z,-145.74
2022-11-07T21:41:38.533Z,-145.74
2022-11-07T21:44:07.580Z,-145.74
2022-11-07T21:46:35.776Z,-145.74
2022-11-07T21:49:06.219Z,-145.74
2022-11-07T21:51:35.455Z,-145.74
2022-11-07T21:54:04.812Z,-145.74
2022-11-07T21:56:38.881Z,-145.74
2022-11-07T21:59:09.402Z,-145.74
2022-11-07T22:01:39.616Z,-145.74
2022-11-07T22:04:11.556Z,-145.74
2022-11-07T22:06:45.637Z,-145.74
2022-11-07T22:09:16.190Z,-145.74
2022-11-07T22:11:44.718Z,-145.74
2022-11-07T22:14:17.879Z,-145.74
2022-11-07T22:16:46.473Z,-145.74
2022-11-07T22:19:15.521Z,-145.74
2022-11-07T22:21:43.528Z,-145.74
2022-11-07T22:24:11.688Z,-145.74
2022-11-07T22:26:39.895Z,-145.74
2022-11-07T22:29:08.008Z,-145.74
2022-11-07T22:31:36.430Z,-145.74
2022-11-07T22:34:04.564Z,-145.74
2022-11-07T22:36:34.903Z,-145.74
2022-11-07T22:39:03.048Z,-145.74
2022-11-07T22:41:31.344Z,-145.74
2022-11-07T22:44:12.067Z,-145.74
2022-11-07T22:46:39.952Z,-145.74
2022-11-07T22:49:07.846Z,-145.74
2022-11-07T22:51:35.971Z,-145.74
2022-11-07T22:54:07.242Z,-145.74
2022-11-07T22:56:36.511Z,-145.74
2022-11-07T22:59:05.743Z,-145.74
2022-11-07T23:01:36.890Z,-145.74
2022-11-07T23:04:06.314Z,-145.74
2022-11-07T23:06:35.066Z,-145.74
2022-11-07T23:09:03.163Z,-145.74
2022-11-07T23:11:45.900Z,-145.74
2022-11-07T23:14:18.609Z,-145.74
2022-11-07T23:16:49.773Z,-145.74
2022-11-07T23:19:20.636Z,-145.74
2022-11-07T23:21:49.553Z,-145.74
2022-11-07T23:24:17.499Z,-145.74
2022-11-07T23:26:45.360Z,-145.74
2022-11-07T23:29:19.730Z,-145.74
2022-11-07T23:31:48.975Z,-145.74
2022-11-07T23:34:18.048Z,-145.74
2022-11-07T23:36:45.832Z,-145.74
2022-11-07T23:39:16.746Z,-145.74
2022-11-07T23:41:45.145Z,-145.74
2022-11-07T23:44:14.557Z,-145.74
2022-11-07T23:47:14.823Z,-145.74
2022-11-07T23:50:01.292Z,-145.74
2022-11-07T23:52:29.066Z,-145.74
2022-11-07T23:55:15.289Z,-145.74
2022-11-07T23:58:01.449Z,-145.74
